sensor_id;sensor_type;location;lat;lon;timestamp;temperature;humidity
69531;SHT31;56727;47.188;8.840;2023-07-20T00:01:51;27.26;43.84
69531;SHT31;56727;47.188;8.840;2023-07-20T00:04:17;27.24;43.96
69531;SHT31;56727;47.188;8.840;2023-07-20T00:06:44;27.24;43.92
69531;SHT31;56727;47.188;8.840;2023-07-20T00:09:11;27.22;43.84
69531;SHT31;56727;47.188;8.840;2023-07-20T00:11:38;27.21;43.99
69531;SHT31;56727;47.188;8.840;2023-07-20T00:14:06;27.18;43.99
69531;SHT31;56727;47.188;8.840;2023-07-20T00:16:33;27.16;43.94
69531;SHT31;56727;47.188;8.840;2023-07-20T00:19:00;27.11;43.90
69531;SHT31;56727;47.188;8.840;2023-07-20T00:21:27;27.08;43.86
69531;SHT31;56727;47.188;8.840;2023-07-20T00:23:53;27.05;43.80
69531;SHT31;56727;47.188;8.840;2023-07-20T00:26:20;27.02;43.79
69531;SHT31;56727;47.188;8.840;2023-07-20T00:28:48;26.98;43.79
69531;SHT31;56727;47.188;8.840;2023-07-20T00:31:16;26.95;43.84
69531;SHT31;56727;47.188;8.840;2023-07-20T00:33:43;26.93;43.96
69531;SHT31;56727;47.188;8.840;2023-07-20T00:36:10;26.89;44.04
69531;SHT31;56727;47.188;8.840;2023-07-20T00:38:36;26.89;44.06
69531;SHT31;56727;47.188;8.840;2023-07-20T00:41:03;26.87;44.08
69531;SHT31;56727;47.188;8.840;2023-07-20T00:43:30;26.85;44.08
69531;SHT31;56727;47.188;8.840;2023-07-20T00:45:56;26.85;44.05
69531;SHT31;56727;47.188;8.840;2023-07-20T00:48:23;26.85;44.02
69531;SHT31;56727;47.188;8.840;2023-07-20T00:50:50;26.83;44.01
69531;SHT31;56727;47.188;8.840;2023-07-20T00:53:17;26.83;44.03
69531;SHT31;56727;47.188;8.840;2023-07-20T00:55:43;26.83;43.99
69531;SHT31;56727;47.188;8.840;2023-07-20T00:58:10;26.83;43.92
69531;SHT31;56727;47.188;8.840;2023-07-20T01:00:37;26.83;43.96
69531;SHT31;56727;47.188;8.840;2023-07-20T01:03:03;26.82;44.02
69531;SHT31;56727;47.188;8.840;2023-07-20T01:05:33;26.81;44.08
69531;SHT31;56727;47.188;8.840;2023-07-20T01:11:33;26.78;44.11
69531;SHT31;56727;47.188;8.840;2023-07-20T01:14:09;26.77;44.13
69531;SHT31;56727;47.188;8.840;2023-07-20T01:16:38;26.76;44.16
69531;SHT31;56727;47.188;8.840;2023-07-20T01:19:04;26.75;44.18
69531;SHT31;56727;47.188;8.840;2023-07-20T01:21:33;26.75;44.20
69531;SHT31;56727;47.188;8.840;2023-07-20T01:24:26;26.74;44.26
69531;SHT31;56727;47.188;8.840;2023-07-20T01:27:31;26.72;44.46
69531;SHT31;56727;47.188;8.840;2023-07-20T01:30:20;26.70;44.54
69531;SHT31;56727;47.188;8.840;2023-07-20T01:33:13;26.70;44.61
69531;SHT31;56727;47.188;8.840;2023-07-20T01:35:43;26.68;44.66
69531;SHT31;56727;47.188;8.840;2023-07-20T01:38:13;26.67;44.77
69531;SHT31;56727;47.188;8.840;2023-07-20T01:40:41;26.65;44.84
69531;SHT31;56727;47.188;8.840;2023-07-20T01:43:08;26.63;44.78
69531;SHT31;56727;47.188;8.840;2023-07-20T01:45:34;26.61;44.70
69531;SHT31;56727;47.188;8.840;2023-07-20T01:48:01;26.58;44.60
69531;SHT31;56727;47.188;8.840;2023-07-20T01:50:28;26.57;44.54
69531;SHT31;56727;47.188;8.840;2023-07-20T01:52:54;26.55;44.46
69531;SHT31;56727;47.188;8.840;2023-07-20T01:55:21;26.53;44.37
69531;SHT31;56727;47.188;8.840;2023-07-20T01:57:48;26.50;44.26
69531;SHT31;56727;47.188;8.840;2023-07-20T02:00:15;26.47;44.23
69531;SHT31;56727;47.188;8.840;2023-07-20T02:02:52;26.42;44.28
69531;SHT31;56727;47.188;8.840;2023-07-20T02:05:19;26.41;44.45
69531;SHT31;56727;47.188;8.840;2023-07-20T02:07:45;26.40;44.58
69531;SHT31;56727;47.188;8.840;2023-07-20T02:10:12;26.39;44.67
69531;SHT31;56727;47.188;8.840;2023-07-20T02:12:39;26.38;44.79
69531;SHT31;56727;47.188;8.840;2023-07-20T02:15:05;26.37;44.81
69531;SHT31;56727;47.188;8.840;2023-07-20T02:17:33;26.36;44.85
69531;SHT31;56727;47.188;8.840;2023-07-20T02:19:59;26.35;44.85
69531;SHT31;56727;47.188;8.840;2023-07-20T02:22:26;26.33;44.89
69531;SHT31;56727;47.188;8.840;2023-07-20T02:24:52;26.31;44.90
69531;SHT31;56727;47.188;8.840;2023-07-20T02:27:19;26.27;44.87
69531;SHT31;56727;47.188;8.840;2023-07-20T02:29:46;26.22;44.81
69531;SHT31;56727;47.188;8.840;2023-07-20T02:32:12;26.18;44.93
69531;SHT31;56727;47.188;8.840;2023-07-20T02:34:39;26.16;45.11
69531;SHT31;56727;47.188;8.840;2023-07-20T02:37:05;26.14;45.35
69531;SHT31;56727;47.188;8.840;2023-07-20T02:39:32;26.11;45.31
69531;SHT31;56727;47.188;8.840;2023-07-20T02:41:59;26.07;45.31
69531;SHT31;56727;47.188;8.840;2023-07-20T02:44:26;26.03;45.33
69531;SHT31;56727;47.188;8.840;2023-07-20T02:46:52;26.01;45.44
69531;SHT31;56727;47.188;8.840;2023-07-20T02:49:19;25.98;45.44
69531;SHT31;56727;47.188;8.840;2023-07-20T02:51:46;25.96;45.49
69531;SHT31;56727;47.188;8.840;2023-07-20T02:54:13;25.94;45.60
69531;SHT31;56727;47.188;8.840;2023-07-20T02:56:41;25.91;45.66
69531;SHT31;56727;47.188;8.840;2023-07-20T02:59:07;25.89;45.80
69531;SHT31;56727;47.188;8.840;2023-07-20T03:01:34;25.85;46.04
69531;SHT31;56727;47.188;8.840;2023-07-20T03:04:01;25.82;46.18
69531;SHT31;56727;47.188;8.840;2023-07-20T03:06:28;25.80;46.27
69531;SHT31;56727;47.188;8.840;2023-07-20T03:08:55;25.78;46.39
69531;SHT31;56727;47.188;8.840;2023-07-20T03:11:21;25.78;46.49
69531;SHT31;56727;47.188;8.840;2023-07-20T03:13:48;25.79;46.58
69531;SHT31;56727;47.188;8.840;2023-07-20T03:16:17;25.80;46.60
69531;SHT31;56727;47.188;8.840;2023-07-20T03:18:45;25.80;46.50
69531;SHT31;56727;47.188;8.840;2023-07-20T03:21:12;25.80;46.45
69531;SHT31;56727;47.188;8.840;2023-07-20T03:23:39;25.81;46.42
69531;SHT31;56727;47.188;8.840;2023-07-20T03:26:06;25.82;46.50
69531;SHT31;56727;47.188;8.840;2023-07-20T03:28:37;25.81;46.58
69531;SHT31;56727;47.188;8.840;2023-07-20T03:31:05;25.81;46.74
69531;SHT31;56727;47.188;8.840;2023-07-20T03:33:34;25.79;46.86
69531;SHT31;56727;47.188;8.840;2023-07-20T03:36:00;25.77;46.97
69531;SHT31;56727;47.188;8.840;2023-07-20T03:38:27;25.73;47.07
69531;SHT31;56727;47.188;8.840;2023-07-20T03:40:55;25.69;47.19
69531;SHT31;56727;47.188;8.840;2023-07-20T03:43:25;25.65;47.28
69531;SHT31;56727;47.188;8.840;2023-07-20T03:45:53;25.61;47.35
69531;SHT31;56727;47.188;8.840;2023-07-20T03:48:21;25.57;47.34
69531;SHT31;56727;47.188;8.840;2023-07-20T03:50:52;25.55;47.34
69531;SHT31;56727;47.188;8.840;2023-07-20T03:53:20;25.55;47.29
69531;SHT31;56727;47.188;8.840;2023-07-20T03:55:48;25.52;47.21
69531;SHT31;56727;47.188;8.840;2023-07-20T03:58:17;25.50;47.17
69531;SHT31;56727;47.188;8.840;2023-07-20T04:00:45;25.50;47.09
69531;SHT31;56727;47.188;8.840;2023-07-20T04:03:14;25.50;47.01
69531;SHT31;56727;47.188;8.840;2023-07-20T04:05:41;25.50;46.85
69531;SHT31;56727;47.188;8.840;2023-07-20T04:08:09;25.49;46.71
69531;SHT31;56727;47.188;8.840;2023-07-20T04:10:37;25.49;46.66
69531;SHT31;56727;47.188;8.840;2023-07-20T04:13:05;25.49;46.60
69531;SHT31;56727;47.188;8.840;2023-07-20T04:15:31;25.51;46.52
69531;SHT31;56727;47.188;8.840;2023-07-20T04:17:58;25.51;46.50
69531;SHT31;56727;47.188;8.840;2023-07-20T04:20:25;25.52;46.42
69531;SHT31;56727;47.188;8.840;2023-07-20T04:22:51;25.51;46.39
69531;SHT31;56727;47.188;8.840;2023-07-20T04:25:18;25.46;46.37
69531;SHT31;56727;47.188;8.840;2023-07-20T04:27:45;25.44;46.39
69531;SHT31;56727;47.188;8.840;2023-07-20T04:30:12;25.41;46.43
69531;SHT31;56727;47.188;8.840;2023-07-20T04:32:39;25.37;46.69
69531;SHT31;56727;47.188;8.840;2023-07-20T04:35:17;25.36;46.80
69531;SHT31;56727;47.188;8.840;2023-07-20T04:38:20;25.36;46.83
69531;SHT31;56727;47.188;8.840;2023-07-20T04:40:48;25.37;46.76
69531;SHT31;56727;47.188;8.840;2023-07-20T04:43:16;25.38;46.67
69531;SHT31;56727;47.188;8.840;2023-07-20T04:45:44;25.37;46.44
69531;SHT31;56727;47.188;8.840;2023-07-20T04:48:13;25.38;46.50
69531;SHT31;56727;47.188;8.840;2023-07-20T04:50:42;25.41;46.41
69531;SHT31;56727;47.188;8.840;2023-07-20T04:53:12;25.42;46.34
69531;SHT31;56727;47.188;8.840;2023-07-20T04:55:39;25.43;46.34
69531;SHT31;56727;47.188;8.840;2023-07-20T04:58:06;25.44;46.39
69531;SHT31;56727;47.188;8.840;2023-07-20T05:00:34;25.47;46.32
69531;SHT31;56727;47.188;8.840;2023-07-20T05:03:01;25.49;46.16
69531;SHT31;56727;47.188;8.840;2023-07-20T05:05:27;25.52;46.01
69531;SHT31;56727;47.188;8.840;2023-07-20T05:07:54;25.54;45.83
69531;SHT31;56727;47.188;8.840;2023-07-20T05:10:20;25.56;45.78
69531;SHT31;56727;47.188;8.840;2023-07-20T05:12:47;25.57;45.90
69531;SHT31;56727;47.188;8.840;2023-07-20T05:15:14;25.58;45.90
69531;SHT31;56727;47.188;8.840;2023-07-20T05:17:41;25.54;45.97
69531;SHT31;56727;47.188;8.840;2023-07-20T05:20:09;25.54;45.93
69531;SHT31;56727;47.188;8.840;2023-07-20T05:22:36;25.54;45.99
69531;SHT31;56727;47.188;8.840;2023-07-20T05:25:07;25.53;46.04
69531;SHT31;56727;47.188;8.840;2023-07-20T05:27:36;25.57;46.05
69531;SHT31;56727;47.188;8.840;2023-07-20T05:30:04;25.62;46.01
69531;SHT31;56727;47.188;8.840;2023-07-20T05:32:33;25.71;45.99
69531;SHT31;56727;47.188;8.840;2023-07-20T05:35:00;25.78;46.05
69531;SHT31;56727;47.188;8.840;2023-07-20T05:37:26;25.82;46.18
69531;SHT31;56727;47.188;8.840;2023-07-20T05:39:53;25.90;46.20
69531;SHT31;56727;47.188;8.840;2023-07-20T05:42:20;25.95;46.45
69531;SHT31;56727;47.188;8.840;2023-07-20T05:44:46;25.97;46.64
69531;SHT31;56727;47.188;8.840;2023-07-20T05:47:14;25.97;46.80
69531;SHT31;56727;47.188;8.840;2023-07-20T05:49:41;25.97;46.61
69531;SHT31;56727;47.188;8.840;2023-07-20T05:52:07;25.92;46.47
69531;SHT31;56727;47.188;8.840;2023-07-20T05:54:34;25.93;46.40
69531;SHT31;56727;47.188;8.840;2023-07-20T05:57:00;25.85;46.53
69531;SHT31;56727;47.188;8.840;2023-07-20T05:59:27;25.73;46.82
69531;SHT31;56727;47.188;8.840;2023-07-20T06:01:57;25.67;47.09
69531;SHT31;56727;47.188;8.840;2023-07-20T06:04:24;25.71;47.08
69531;SHT31;56727;47.188;8.840;2023-07-20T06:06:50;26.01;46.71
69531;SHT31;56727;47.188;8.840;2023-07-20T06:09:17;26.51;46.36
69531;SHT31;56727;47.188;8.840;2023-07-20T06:11:44;26.75;46.25
69531;SHT31;56727;47.188;8.840;2023-07-20T06:14:11;26.86;46.03
69531;SHT31;56727;47.188;8.840;2023-07-20T06:16:38;27.84;44.92
69531;SHT31;56727;47.188;8.840;2023-07-20T06:19:05;28.50;44.37
69531;SHT31;56727;47.188;8.840;2023-07-20T06:21:31;28.37;44.34
69531;SHT31;56727;47.188;8.840;2023-07-20T06:23:58;28.27;44.17
69531;SHT31;56727;47.188;8.840;2023-07-20T06:26:25;29.00;43.53
69531;SHT31;56727;47.188;8.840;2023-07-20T06:28:51;30.30;42.23
69531;SHT31;56727;47.188;8.840;2023-07-20T06:31:18;31.44;41.54
69531;SHT31;56727;47.188;8.840;2023-07-20T06:33:44;32.55;40.33
69531;SHT31;56727;47.188;8.840;2023-07-20T06:36:11;33.65;39.20
69531;SHT31;56727;47.188;8.840;2023-07-20T06:38:38;34.87;37.68
69531;SHT31;56727;47.188;8.840;2023-07-20T06:41:05;36.05;36.41
69531;SHT31;56727;47.188;8.840;2023-07-20T06:43:31;37.08;35.42
69531;SHT31;56727;47.188;8.840;2023-07-20T06:45:58;38.04;33.94
69531;SHT31;56727;47.188;8.840;2023-07-20T06:48:24;38.96;33.29
69531;SHT31;56727;47.188;8.840;2023-07-20T06:50:51;39.90;32.17
69531;SHT31;56727;47.188;8.840;2023-07-20T06:53:17;40.75;31.49
69531;SHT31;56727;47.188;8.840;2023-07-20T06:55:44;41.56;30.53
69531;SHT31;56727;47.188;8.840;2023-07-20T06:58:11;42.39;29.78
69531;SHT31;56727;47.188;8.840;2023-07-20T07:00:38;43.16;28.99
69531;SHT31;56727;47.188;8.840;2023-07-20T07:03:04;43.82;28.40
69531;SHT31;56727;47.188;8.840;2023-07-20T07:05:31;44.44;27.56
69531;SHT31;56727;47.188;8.840;2023-07-20T07:07:57;45.10;26.50
69531;SHT31;56727;47.188;8.840;2023-07-20T07:10:24;45.51;25.89
69531;SHT31;56727;47.188;8.840;2023-07-20T07:12:50;45.97;25.60
69531;SHT31;56727;47.188;8.840;2023-07-20T07:15:17;46.47;24.97
69531;SHT31;56727;47.188;8.840;2023-07-20T07:17:44;46.96;24.51
69531;SHT31;56727;47.188;8.840;2023-07-20T07:20:10;47.45;23.93
69531;SHT31;56727;47.188;8.840;2023-07-20T07:22:38;47.94;23.43
69531;SHT31;56727;47.188;8.840;2023-07-20T07:25:05;48.19;22.71
69531;SHT31;56727;47.188;8.840;2023-07-20T07:27:33;48.52;22.65
69531;SHT31;56727;47.188;8.840;2023-07-20T07:30:00;48.89;21.41
69531;SHT31;56727;47.188;8.840;2023-07-20T07:32:27;48.86;21.62
69531;SHT31;56727;47.188;8.840;2023-07-20T07:34:54;48.99;20.55
69531;SHT31;56727;47.188;8.840;2023-07-20T07:37:21;48.69;20.69
69531;SHT31;56727;47.188;8.840;2023-07-20T07:39:47;48.51;20.47
69531;SHT31;56727;47.188;8.840;2023-07-20T07:42:14;48.62;20.06
69531;SHT31;56727;47.188;8.840;2023-07-20T07:44:40;48.42;19.95
69531;SHT31;56727;47.188;8.840;2023-07-20T07:47:07;48.23;20.72
69531;SHT31;56727;47.188;8.840;2023-07-20T07:49:34;48.88;20.51
69531;SHT31;56727;47.188;8.840;2023-07-20T07:52:00;49.44;20.17
69531;SHT31;56727;47.188;8.840;2023-07-20T07:54:28;49.94;20.04
69531;SHT31;56727;47.188;8.840;2023-07-20T07:56:56;50.57;19.29
69531;SHT31;56727;47.188;8.840;2023-07-20T07:59:22;50.43;18.16
69531;SHT31;56727;47.188;8.840;2023-07-20T08:01:49;50.11;18.41
69531;SHT31;56727;47.188;8.840;2023-07-20T08:04:15;49.85;18.76
69531;SHT31;56727;47.188;8.840;2023-07-20T08:06:42;49.75;18.40
69531;SHT31;56727;47.188;8.840;2023-07-20T08:09:08;49.81;18.83
69531;SHT31;56727;47.188;8.840;2023-07-20T08:11:35;50.31;18.93
69531;SHT31;56727;47.188;8.840;2023-07-20T08:14:02;51.11;18.63
69531;SHT31;56727;47.188;8.840;2023-07-20T08:16:29;51.81;18.13
69531;SHT31;56727;47.188;8.840;2023-07-20T08:18:55;52.25;17.87
69531;SHT31;56727;47.188;8.840;2023-07-20T08:21:22;52.44;17.45
69531;SHT31;56727;47.188;8.840;2023-07-20T08:23:48;52.12;17.48
69531;SHT31;56727;47.188;8.840;2023-07-20T08:26:15;50.96;17.83
69531;SHT31;56727;47.188;8.840;2023-07-20T08:28:42;49.26;18.44
69531;SHT31;56727;47.188;8.840;2023-07-20T08:31:11;46.97;18.85
69531;SHT31;56727;47.188;8.840;2023-07-20T08:33:37;44.38;20.32
69531;SHT31;56727;47.188;8.840;2023-07-20T08:36:04;42.44;21.53
69531;SHT31;56727;47.188;8.840;2023-07-20T08:38:32;40.92;22.69
69531;SHT31;56727;47.188;8.840;2023-07-20T08:40:58;40.03;23.49
69531;SHT31;56727;47.188;8.840;2023-07-20T08:43:26;39.34;24.22
69531;SHT31;56727;47.188;8.840;2023-07-20T08:48:42;37.60;25.87
69531;SHT31;56727;47.188;8.840;2023-07-20T08:51:10;36.87;26.77
69531;SHT31;56727;47.188;8.840;2023-07-20T08:53:39;36.03;27.70
69531;SHT31;56727;47.188;8.840;2023-07-20T08:56:05;35.41;28.05
69531;SHT31;56727;47.188;8.840;2023-07-20T08:58:37;35.24;28.42
69531;SHT31;56727;47.188;8.840;2023-07-20T09:01:07;34.82;28.92
69531;SHT31;56727;47.188;8.840;2023-07-20T09:03:34;34.29;29.63
69531;SHT31;56727;47.188;8.840;2023-07-20T09:06:01;33.56;30.62
69531;SHT31;56727;47.188;8.840;2023-07-20T09:08:27;33.08;31.16
69531;SHT31;56727;47.188;8.840;2023-07-20T09:10:54;32.78;31.34
69531;SHT31;56727;47.188;8.840;2023-07-20T09:13:20;32.89;30.94
69531;SHT31;56727;47.188;8.840;2023-07-20T09:15:47;33.18;30.62
69531;SHT31;56727;47.188;8.840;2023-07-20T09:18:23;33.22;31.12
69531;SHT31;56727;47.188;8.840;2023-07-20T09:20:51;32.74;31.88
69531;SHT31;56727;47.188;8.840;2023-07-20T09:23:18;32.26;32.76
69531;SHT31;56727;47.188;8.840;2023-07-20T09:25:44;31.94;32.96
69531;SHT31;56727;47.188;8.840;2023-07-20T09:28:16;31.71;33.26
69531;SHT31;56727;47.188;8.840;2023-07-20T09:30:44;31.79;33.00
69531;SHT31;56727;47.188;8.840;2023-07-20T09:33:17;32.00;32.90
69531;SHT31;56727;47.188;8.840;2023-07-20T09:35:47;32.12;32.76
69531;SHT31;56727;47.188;8.840;2023-07-20T09:38:14;31.94;32.93
69531;SHT31;56727;47.188;8.840;2023-07-20T09:40:41;31.88;32.85
69531;SHT31;56727;47.188;8.840;2023-07-20T09:43:08;31.93;33.04
69531;SHT31;56727;47.188;8.840;2023-07-20T09:45:39;32.00;33.11
69531;SHT31;56727;47.188;8.840;2023-07-20T09:48:09;32.14;32.98
69531;SHT31;56727;47.188;8.840;2023-07-20T09:50:40;32.21;33.17
69531;SHT31;56727;47.188;8.840;2023-07-20T09:53:17;32.02;33.39
69531;SHT31;56727;47.188;8.840;2023-07-20T09:55:46;32.07;33.30
69531;SHT31;56727;47.188;8.840;2023-07-20T09:58:14;32.18;33.26
69531;SHT31;56727;47.188;8.840;2023-07-20T10:00:42;32.34;33.20
69531;SHT31;56727;47.188;8.840;2023-07-20T10:03:14;32.55;33.03
69531;SHT31;56727;47.188;8.840;2023-07-20T10:05:57;32.63;32.86
69531;SHT31;56727;47.188;8.840;2023-07-20T10:08:30;32.44;33.21
69531;SHT31;56727;47.188;8.840;2023-07-20T10:11:04;32.46;33.30
69531;SHT31;56727;47.188;8.840;2023-07-20T10:13:37;32.53;33.22
69531;SHT31;56727;47.188;8.840;2023-07-20T10:16:10;32.68;33.02
69531;SHT31;56727;47.188;8.840;2023-07-20T10:18:41;32.86;32.81
69531;SHT31;56727;47.188;8.840;2023-07-20T10:21:17;33.02;32.59
69531;SHT31;56727;47.188;8.840;2023-07-20T10:23:49;33.11;32.31
69531;SHT31;56727;47.188;8.840;2023-07-20T10:26:16;33.20;32.31
69531;SHT31;56727;47.188;8.840;2023-07-20T10:28:42;33.31;32.27
69531;SHT31;56727;47.188;8.840;2023-07-20T10:31:09;33.32;32.22
69531;SHT31;56727;47.188;8.840;2023-07-20T10:33:39;33.22;32.31
69531;SHT31;56727;47.188;8.840;2023-07-20T10:36:06;33.13;32.26
69531;SHT31;56727;47.188;8.840;2023-07-20T10:38:39;33.10;32.44
69531;SHT31;56727;47.188;8.840;2023-07-20T10:44:07;32.93;32.30
69531;SHT31;56727;47.188;8.840;2023-07-20T10:46:35;32.71;32.54
69531;SHT31;56727;47.188;8.840;2023-07-20T10:49:11;32.28;33.03
69531;SHT31;56727;47.188;8.840;2023-07-20T10:57:31;31.95;33.61
69531;SHT31;56727;47.188;8.840;2023-07-20T11:00:07;31.96;33.88
69531;SHT31;56727;47.188;8.840;2023-07-20T11:02:44;31.79;33.88
69531;SHT31;56727;47.188;8.840;2023-07-20T11:05:35;31.79;34.28
69531;SHT31;56727;47.188;8.840;2023-07-20T11:08:11;31.75;34.15
69531;SHT31;56727;47.188;8.840;2023-07-20T11:10:38;31.63;34.31
69531;SHT31;56727;47.188;8.840;2023-07-20T11:13:18;31.25;34.48
69531;SHT31;56727;47.188;8.840;2023-07-20T11:18:42;30.83;34.87
69531;SHT31;56727;47.188;8.840;2023-07-20T11:21:10;30.95;34.67
69531;SHT31;56727;47.188;8.840;2023-07-20T11:23:37;31.08;34.38
69531;SHT31;56727;47.188;8.840;2023-07-20T11:26:05;30.97;34.46
69531;SHT31;56727;47.188;8.840;2023-07-20T11:28:33;30.98;34.38
69531;SHT31;56727;47.188;8.840;2023-07-20T11:31:00;31.10;34.21
69531;SHT31;56727;47.188;8.840;2023-07-20T11:33:27;31.37;33.91
69531;SHT31;56727;47.188;8.840;2023-07-20T11:35:53;31.60;33.71
69531;SHT31;56727;47.188;8.840;2023-07-20T11:38:20;31.80;33.89
69531;SHT31;56727;47.188;8.840;2023-07-20T11:40:46;32.03;33.60
69531;SHT31;56727;47.188;8.840;2023-07-20T11:43:13;32.21;33.25
69531;SHT31;56727;47.188;8.840;2023-07-20T11:45:41;32.26;33.28
69531;SHT31;56727;47.188;8.840;2023-07-20T11:48:13;32.36;33.44
69531;SHT31;56727;47.188;8.840;2023-07-20T11:50:42;32.51;33.20
69531;SHT31;56727;47.188;8.840;2023-07-20T11:53:09;32.53;32.95
69531;SHT31;56727;47.188;8.840;2023-07-20T11:55:36;32.34;32.92
69531;SHT31;56727;47.188;8.840;2023-07-20T11:58:04;32.23;33.29
69531;SHT31;56727;47.188;8.840;2023-07-20T12:00:32;32.14;33.41
69531;SHT31;56727;47.188;8.840;2023-07-20T12:03:01;32.08;33.17
69531;SHT31;56727;47.188;8.840;2023-07-20T12:05:27;32.09;33.31
69531;SHT31;56727;47.188;8.840;2023-07-20T12:07:54;32.17;33.66
69531;SHT31;56727;47.188;8.840;2023-07-20T12:10:27;32.24;33.49
69531;SHT31;56727;47.188;8.840;2023-07-20T12:12:54;32.04;33.31
69531;SHT31;56727;47.188;8.840;2023-07-20T12:15:29;31.83;33.52
69531;SHT31;56727;47.188;8.840;2023-07-20T12:17:58;31.86;33.64
69531;SHT31;56727;47.188;8.840;2023-07-20T12:20:27;31.76;33.62
69531;SHT31;56727;47.188;8.840;2023-07-20T12:23:05;31.81;33.77
69531;SHT31;56727;47.188;8.840;2023-07-20T12:25:40;31.91;33.64
69531;SHT31;56727;47.188;8.840;2023-07-20T12:28:15;31.94;33.50
69531;SHT31;56727;47.188;8.840;2023-07-20T12:30:46;31.94;33.76
69531;SHT31;56727;47.188;8.840;2023-07-20T12:33:22;32.03;33.41
69531;SHT31;56727;47.188;8.840;2023-07-20T12:35:49;32.03;33.21
69531;SHT31;56727;47.188;8.840;2023-07-20T12:38:16;31.92;33.35
69531;SHT31;56727;47.188;8.840;2023-07-20T12:40:43;31.84;33.36
69531;SHT31;56727;47.188;8.840;2023-07-20T12:43:09;31.59;33.52
69531;SHT31;56727;47.188;8.840;2023-07-20T12:45:36;31.52;33.74
69531;SHT31;56727;47.188;8.840;2023-07-20T12:48:02;31.43;34.10
69531;SHT31;56727;47.188;8.840;2023-07-20T12:50:29;31.29;34.37
69531;SHT31;56727;47.188;8.840;2023-07-20T12:52:56;31.21;34.36
69531;SHT31;56727;47.188;8.840;2023-07-20T12:55:22;31.13;34.59
69531;SHT31;56727;47.188;8.840;2023-07-20T12:57:49;31.11;34.74
69531;SHT31;56727;47.188;8.840;2023-07-20T13:00:16;31.23;34.65
69531;SHT31;56727;47.188;8.840;2023-07-20T13:02:43;31.32;34.67
69531;SHT31;56727;47.188;8.840;2023-07-20T13:05:10;31.41;34.70
69531;SHT31;56727;47.188;8.840;2023-07-20T13:07:37;31.47;34.54
69531;SHT31;56727;47.188;8.840;2023-07-20T13:10:06;31.54;34.51
69531;SHT31;56727;47.188;8.840;2023-07-20T13:12:34;31.62;34.54
69531;SHT31;56727;47.188;8.840;2023-07-20T13:15:05;31.50;34.52
69531;SHT31;56727;47.188;8.840;2023-07-20T13:17:35;31.22;34.84
69531;SHT31;56727;47.188;8.840;2023-07-20T13:20:03;31.13;34.97
69531;SHT31;56727;47.188;8.840;2023-07-20T13:22:33;31.09;35.06
69531;SHT31;56727;47.188;8.840;2023-07-20T13:25:01;31.13;34.96
69531;SHT31;56727;47.188;8.840;2023-07-20T13:27:28;31.14;34.89
69531;SHT31;56727;47.188;8.840;2023-07-20T13:29:58;31.09;34.88
69531;SHT31;56727;47.188;8.840;2023-07-20T13:32:27;30.98;34.90
69531;SHT31;56727;47.188;8.840;2023-07-20T13:34:53;30.83;34.93
69531;SHT31;56727;47.188;8.840;2023-07-20T13:37:20;30.61;35.37
69531;SHT31;56727;47.188;8.840;2023-07-20T13:39:47;30.51;35.59
69531;SHT31;56727;47.188;8.840;2023-07-20T13:42:14;30.49;35.63
69531;SHT31;56727;47.188;8.840;2023-07-20T13:44:40;30.55;35.69
69531;SHT31;56727;47.188;8.840;2023-07-20T13:47:07;30.59;35.60
69531;SHT31;56727;47.188;8.840;2023-07-20T13:49:34;30.62;35.80
69531;SHT31;56727;47.188;8.840;2023-07-20T13:52:01;30.78;35.69
69531;SHT31;56727;47.188;8.840;2023-07-20T13:54:27;30.95;35.58
69531;SHT31;56727;47.188;8.840;2023-07-20T13:56:54;31.10;35.29
69531;SHT31;56727;47.188;8.840;2023-07-20T13:59:20;31.16;34.95
69531;SHT31;56727;47.188;8.840;2023-07-20T14:01:47;31.22;34.87
69531;SHT31;56727;47.188;8.840;2023-07-20T14:04:13;31.31;34.64
69531;SHT31;56727;47.188;8.840;2023-07-20T14:06:40;31.43;34.30
69531;SHT31;56727;47.188;8.840;2023-07-20T14:09:07;31.46;34.21
69531;SHT31;56727;47.188;8.840;2023-07-20T14:11:33;31.27;34.22
69531;SHT31;56727;47.188;8.840;2023-07-20T14:14:00;31.10;34.57
69531;SHT31;56727;47.188;8.840;2023-07-20T14:16:27;31.07;34.82
69531;SHT31;56727;47.188;8.840;2023-07-20T14:18:53;31.14;34.87
69531;SHT31;56727;47.188;8.840;2023-07-20T14:21:20;31.24;34.82
69531;SHT31;56727;47.188;8.840;2023-07-20T14:23:48;31.32;34.65
69531;SHT31;56727;47.188;8.840;2023-07-20T14:26:17;31.25;34.67
69531;SHT31;56727;47.188;8.840;2023-07-20T14:28:43;31.21;34.80
69531;SHT31;56727;47.188;8.840;2023-07-20T14:31:10;31.17;34.58
69531;SHT31;56727;47.188;8.840;2023-07-20T14:33:37;30.98;34.63
69531;SHT31;56727;47.188;8.840;2023-07-20T14:36:03;30.84;35.01
69531;SHT31;56727;47.188;8.840;2023-07-20T14:38:30;30.87;34.94
69531;SHT31;56727;47.188;8.840;2023-07-20T14:40:59;30.80;35.04
69531;SHT31;56727;47.188;8.840;2023-07-20T14:43:26;30.72;35.10
69531;SHT31;56727;47.188;8.840;2023-07-20T14:45:52;30.60;35.36
69531;SHT31;56727;47.188;8.840;2023-07-20T14:48:20;30.53;35.45
69531;SHT31;56727;47.188;8.840;2023-07-20T14:50:47;30.52;35.56
69531;SHT31;56727;47.188;8.840;2023-07-20T14:53:14;30.61;35.56
69531;SHT31;56727;47.188;8.840;2023-07-20T14:55:41;30.62;35.64
69531;SHT31;56727;47.188;8.840;2023-07-20T14:58:09;30.56;35.78
69531;SHT31;56727;47.188;8.840;2023-07-20T15:00:36;30.55;36.03
69531;SHT31;56727;47.188;8.840;2023-07-20T15:03:03;30.63;35.94
69531;SHT31;56727;47.188;8.840;2023-07-20T15:05:31;30.74;35.81
69531;SHT31;56727;47.188;8.840;2023-07-20T15:07:57;30.78;35.89
69531;SHT31;56727;47.188;8.840;2023-07-20T15:10:24;30.75;35.76
69531;SHT31;56727;47.188;8.840;2023-07-20T15:12:50;30.73;35.79
69531;SHT31;56727;47.188;8.840;2023-07-20T15:15:17;30.79;36.06
69531;SHT31;56727;47.188;8.840;2023-07-20T15:17:43;30.91;35.84
69531;SHT31;56727;47.188;8.840;2023-07-20T15:20:12;31.06;35.67
69531;SHT31;56727;47.188;8.840;2023-07-20T15:22:40;31.13;35.59
69531;SHT31;56727;47.188;8.840;2023-07-20T15:25:07;31.16;35.28
69531;SHT31;56727;47.188;8.840;2023-07-20T15:27:39;31.21;35.62
69531;SHT31;56727;47.188;8.840;2023-07-20T15:30:08;31.32;35.44
69531;SHT31;56727;47.188;8.840;2023-07-20T15:32:35;31.37;35.14
69531;SHT31;56727;47.188;8.840;2023-07-20T15:35:02;31.36;35.38
69531;SHT31;56727;47.188;8.840;2023-07-20T15:37:30;31.41;35.39
69531;SHT31;56727;47.188;8.840;2023-07-20T15:39:57;31.46;35.19
69531;SHT31;56727;47.188;8.840;2023-07-20T15:42:24;31.45;35.05
69531;SHT31;56727;47.188;8.840;2023-07-20T15:47:56;31.56;34.76
69531;SHT31;56727;47.188;8.840;2023-07-20T15:50:22;31.55;34.74
69531;SHT31;56727;47.188;8.840;2023-07-20T15:52:49;31.62;34.74
69531;SHT31;56727;47.188;8.840;2023-07-20T15:55:16;31.69;34.97
69531;SHT31;56727;47.188;8.840;2023-07-20T15:57:43;31.75;34.84